»·PEaware :: BTQ705 KSEA-KYKM

BTQ705 :: KSEA-KYKM

FLIGHT INFORMATION

Flight Status: Arrived
Operator: Unknown
More flights by this operator :: More flights under this callsign
Pilot: Armando C. (16967)
Aircraft: PILATUS PC-12 EAGLE
(PC12)
More flights by this aircraft type
Origin: KSEA Seattle-Tacoma Intl
United States
Destination: KYKM Yakima Air Term/Mcallister
United States
More flights between these airports :: More routes between these airports
Route: +SEA6 SEA V298 SELAH
File this flight plan on PilotEdge
Remarks:
Altitude:
(Current/Filed)
13,000ft
Speed:
(Current/Filed)
230kts
Departed: 11-Dec-17 12:20 PM
Arrived: 11-Dec-17 01:00 PM
Distance/Time
Traveled:
90nm/0:39
Distance/Time
To Go:
Arrived

Flight Plot

Page will automatically refresh every two minutes.

Flight plan parsing failed; only flown route is shown


Map Options




Map Legend


Flown Route
Filed Route
Departure Airport
Arrival Airport
Navaid (VOR, NDB)
Fix

Horizontal Profiles

Position Reports

Time Latitude Longitude Heading Altitude Ground
Speed
11-Dec-17 12:06 47.446601 -122.299839 138 436ft 0kts
11-Dec-17 12:07 47.446601 -122.299839 138 436ft 0kts
11-Dec-17 12:08 47.446601 -122.299838 138 436ft 0kts
11-Dec-17 12:09 47.446600 -122.299837 138 436ft 0kts
11-Dec-17 12:10 47.446600 -122.299837 138 436ft 0kts
11-Dec-17 12:11 47.446599 -122.299836 138 436ft 0kts
11-Dec-17 12:12 47.446599 -122.299835 138 436ft 0kts
11-Dec-17 12:13 47.446598 -122.299835 138 436ft 0kts
11-Dec-17 12:14 47.446598 -122.299834 138 436ft 0kts
11-Dec-17 12:15 47.446597 -122.299834 138 436ft 0kts
11-Dec-17 12:16 47.446597 -122.299833 138 436ft 0kts
11-Dec-17 12:17 47.446596 -122.299832 138 436ft 0kts
11-Dec-17 12:18 47.446596 -122.299832 138 436ft 0kts
11-Dec-17 12:19 47.446613 -122.299816 91 436ft 2kts
11-Dec-17 12:20 47.447565 -122.303896 271 436ft 13kts
11-Dec-17 12:21 47.448565 -122.306180 4 436ft 1kts
11-Dec-17 12:22 47.454746 -122.306198 3 436ft 20kts
11-Dec-17 12:23 47.458652 -122.306171 358 436ft 13kts
11-Dec-17 12:24 47.463259 -122.306226 331 436ft 8kts
11-Dec-17 12:25 47.463416 -122.306499 279 436ft 0kts
11-Dec-17 12:26 47.458483 -122.307843 184 474ft 98kts
11-Dec-17 12:27 47.421951 -122.308646 183 2311ft 150kts
11-Dec-17 12:28 47.378670 -122.305840 152 4191ft 172kts
11-Dec-17 12:29 47.356783 -122.241409 106 5847ft 188kts
11-Dec-17 12:30 47.347234 -122.164874 87 7457ft 193kts
11-Dec-17 12:31 47.350173 -122.084718 86 9063ft 196kts
11-Dec-17 12:32 47.353321 -122.003785 86 10663ft 199kts
11-Dec-17 12:33 47.350356 -121.922880 111 12265ft 201kts
11-Dec-17 12:34 47.333346 -121.839411 105 13004ft 231kts
11-Dec-17 12:35 47.314453 -121.746589 107 13000ft 242kts
11-Dec-17 12:36 47.293637 -121.651001 107 13000ft 243kts
11-Dec-17 12:37 47.272748 -121.556425 107 13000ft 243kts
11-Dec-17 12:38 47.251889 -121.461914 107 13000ft 243kts
11-Dec-17 12:39 47.230972 -121.367348 107 12999ft 242kts
11-Dec-17 12:40 47.210030 -121.273414 107 13000ft 242kts
11-Dec-17 12:41 47.189007 -121.179605 107 13000ft 242kts
11-Dec-17 12:42 47.170363 -121.096775 108 13015ft 242kts
11-Dec-17 12:43 47.149138 -121.002902 108 13011ft 242kts
11-Dec-17 12:44 47.125352 -120.910430 125 13085ft 240kts
11-Dec-17 12:45 47.072349 -120.851541 150 13183ft 243kts
11-Dec-17 12:46 47.013582 -120.802839 143 13148ft 244kts
11-Dec-17 12:47 46.963099 -120.734537 135 12169ft 246kts
11-Dec-17 12:48 46.915135 -120.666180 135 11168ft 236kts
11-Dec-17 12:49 46.868884 -120.600291 135 10168ft 229kts
11-Dec-17 12:50 46.823478 -120.535660 135 9166ft 225kts
11-Dec-17 12:51 46.778940 -120.472319 135 8166ft 222kts
11-Dec-17 12:52 46.735256 -120.410227 135 7169ft 217kts
11-Dec-17 12:53 46.692487 -120.349512 135 6291ft 209kts
11-Dec-17 12:54 46.651298 -120.291072 135 6249ft 208kts
11-Dec-17 12:55 46.609380 -120.231687 135 6045ft 208kts
11-Dec-17 12:56 46.561748 -120.190344 191 5825ft 216kts
11-Dec-17 12:57 46.535840 -120.249792 255 5053ft 162kts
11-Dec-17 12:58 46.526210 -120.301362 255 4128ft 108kts
11-Dec-17 12:59 46.526424 -120.342121 277 3124ft 100kts
11-Dec-17 13:00 46.527748 -120.377058 283 2923ft 77kts
11-Dec-17 13:01 46.533792 -120.408285 292 2891ft 84kts
11-Dec-17 13:02 46.541741 -120.440453 292 2240ft 82kts
11-Dec-17 13:03 46.550423 -120.469957 289 2057ft 81kts
11-Dec-17 13:04 46.558289 -120.501007 284 1600ft 80kts
11-Dec-17 13:05 46.565264 -120.530641 288 1152ft 76kts
11-Dec-17 13:06 46.568106 -120.539606 59 1098ft 0kts
11-Dec-17 13:07 46.569699 -120.539822 301 1098ft 0kts
11-Dec-17 13:08 46.569699 -120.539822 301 1098ft 0kts

Navigation Log

Ident Type
Flight plan parsing failed, navigation log unavailable